Time;durP1;ratioP1;P1;durP2;ratioP2;P2;SDS_P1;SDS_P2;PMS_P1;PMS_P2;Temp;Humidity;BMP_temperature;BMP_pressure;BME280_temperature;BME280_humidity;BME280_pressure;Samples;Min_cycle;Max_cycle;Signal;HPM_P1;HPM_P2
2022/04/20 00:00:44;;;;;;;0.80;0.80;;;20.10;46.70;;;;;;5090865;27;43996;-61
2022/04/20 00:03:12;;;;;;;1.25;0.80;;;20.10;46.70;;;;;;5074566;27;43483;-60
2022/04/20 00:05:39;;;;;;;0.80;0.80;;;20.10;46.70;;;;;;5015787;27;43426;-61
2022/04/20 00:08:07;;;;;;;0.70;0.70;;;20.10;46.70;;;;;;5101221;27;43559;-59
2022/04/20 00:10:35;;;;;;;1.05;0.95;;;20.10;46.70;;;;;;5093294;27;44792;-60
2022/04/20 00:13:02;;;;;;;1.08;1.05;;;20.10;46.80;;;;;;5079419;27;43486;-59
2022/04/20 00:15:29;;;;;;;0.93;0.93;;;20.10;46.70;;;;;;5075778;28;43463;-60
2022/04/20 00:17:56;;;;;;;0.93;0.93;;;20.10;46.80;;;;;;5076513;28;43472;-60
2022/04/20 00:20:24;;;;;;;1.35;0.90;;;20.00;46.70;;;;;;5074948;28;43909;-60
2022/04/20 00:22:51;;;;;;;0.85;0.85;;;20.00;46.70;;;;;;5063383;27;43970;-60
2022/04/20 00:25:18;;;;;;;1.27;0.77;;;20.00;46.80;;;;;;5056602;27;43422;-61
2022/04/20 00:27:46;;;;;;;1.75;0.80;;;20.00;46.70;;;;;;5099389;27;43445;-61
2022/04/20 00:30:13;;;;;;;1.00;0.70;;;20.00;46.70;;;;;;5064062;27;43874;-59
2022/04/20 00:32:41;;;;;;;1.00;1.00;;;19.90;46.60;;;;;;5084663;27;43519;-60
2022/04/20 00:35:12;;;;;;;0.75;0.75;;;19.90;47.40;;;;;;5060586;27;43458;-60
2022/04/20 00:37:43;;;;;;;0.88;0.73;;;19.90;46.70;;;;;;5080239;27;43581;-61
2022/04/20 00:40:12;;;;;;;0.98;0.98;;;19.90;46.70;;;;;;5085095;27;44954;-60
2022/04/20 00:42:41;;;;;;;1.00;1.00;;;19.90;46.60;;;;;;5069885;27;44133;-60
2022/04/20 00:45:10;;;;;;;0.80;0.80;;;19.90;46.60;;;;;;5067243;28;43472;-60
2022/04/20 00:47:44;;;;;;;0.70;0.70;;;19.90;46.70;;;;;;5078435;27;43568;-60
2022/04/20 00:50:16;;;;;;;0.73;0.73;;;19.90;46.80;;;;;;5063737;28;43881;-60
2022/04/20 00:52:44;;;;;;;0.80;0.80;;;19.80;47.40;;;;;;5100470;27;43565;-60
2022/04/20 00:55:29;;;;;;;0.90;0.77;;;19.80;46.70;;;;;;5066419;28;43506;-60
2022/04/20 00:57:58;;;;;;;0.93;0.93;;;19.80;46.70;;;;;;5048801;28;43534;-60
2022/04/20 01:00:27;;;;;;;0.70;0.70;;;19.80;46.70;;;;;;5068495;28;43780;-60
2022/04/20 01:02:55;;;;;;;0.90;0.70;;;19.80;46.80;;;;;;5091138;27;43444;-60
2022/04/20 01:05:25;;;;;;;1.20;1.10;;;19.80;46.70;;;;;;5106146;27;43452;-60
2022/04/20 01:08:16;;;;;;;1.40;0.90;;;19.80;46.80;;;;;;5071323;28;43641;-60
2022/04/20 01:10:56;;;;;;;0.70;0.70;;;19.80;46.80;;;;;;5073434;27;44181;-59
2022/04/20 01:13:49;;;;;;;1.23;0.90;;;19.80;46.80;;;;;;5050689;27;43488;-60
2022/04/20 01:16:35;;;;;;;0.90;0.90;;;19.70;46.70;;;;;;5072069;28;43491;-59
2022/04/20 01:19:14;;;;;;;0.80;0.80;;;19.70;46.70;;;;;;5065919;28;43523;-60
2022/04/20 01:22:08;;;;;;;0.90;0.90;;;19.70;46.90;;;;;;5060355;27;44718;-60
2022/04/20 01:25:02;;;;;;;0.80;0.80;;;19.70;46.70;;;;;;5063099;28;43454;-61
2022/04/20 01:27:36;;;;;;;0.95;0.80;;;19.70;46.70;;;;;;5065792;27;43551;-60
2022/04/20 01:30:13;;;;;;;0.80;0.80;;;19.70;46.70;;;;;;5058662;27;43589;-60
2022/04/20 01:32:58;;;;;;;1.13;0.90;;;19.60;46.70;;;;;;5052746;28;44847;-61
2022/04/20 01:35:31;;;;;;;0.90;0.90;;;19.60;47.40;;;;;;5090252;27;43474;-61
2022/04/20 01:37:59;;;;;;;0.93;0.82;;;19.60;46.70;;;;;;5060809;27;43413;-60
2022/04/20 01:40:26;;;;;;;0.88;0.88;;;19.60;46.70;;;;;;5087731;27;43483;-60
2022/04/20 01:42:53;;;;;;;1.02;0.80;;;19.60;46.90;;;;;;5105440;27;43885;-60
2022/04/20 01:45:20;;;;;;;1.27;0.80;;;19.60;47.10;;;;;;5057485;27;43499;-60
2022/04/20 01:48:07;;;;;;;0.98;0.80;;;19.60;46.70;;;;;;5089346;27;43462;-61
2022/04/20 01:53:59;;;;;;;0.88;0.88;;;19.60;46.90;;;;;;5082415;27;43799;-59
2022/04/20 01:56:47;;;;;;;0.77;0.77;;;19.50;46.80;;;;;;5058023;28;43504;-61
2022/04/20 01:59:34;;;;;;;0.95;0.95;;;19.50;47.00;;;;;;5066074;28;43437;-61
2022/04/20 02:04:58;;;;;;;1.00;1.00;;;19.50;47.00;;;;;;5073089;28;45156;-60
2022/04/20 02:07:25;;;;;;;1.13;0.90;;;19.50;47.10;;;;;;5057898;28;43942;-61
2022/04/20 02:09:53;;;;;;;0.98;0.90;;;19.50;46.90;;;;;;5044777;28;43460;-60
2022/04/20 02:12:20;;;;;;;1.08;0.93;;;19.50;46.80;;;;;;5061768;28;43602;-60
2022/04/20 02:15:11;;;;;;;0.95;0.93;;;19.40;46.90;;;;;;5064471;28;45100;-62
2022/04/20 02:18:02;;;;;;;0.85;0.85;;;19.40;47.00;;;;;;5017694;28;43502;-59
2022/04/20 02:20:52;;;;;;;0.83;0.70;;;19.40;46.80;;;;;;5059967;28;43481;-60
2022/04/20 02:23:20;;;;;;;0.93;0.73;;;19.40;46.80;;;;;;5055185;28;43567;-60
2022/04/20 02:25:48;;;;;;;0.80;0.80;;;19.40;46.80;;;;;;5072597;28;44000;-60
2022/04/20 02:28:16;;;;;;;1.08;1.00;;;19.30;46.90;;;;;;5048185;28;43459;-59
2022/04/20 02:30:43;;;;;;;0.80;0.80;;;19.40;47.00;;;;;;5065978;28;43486;-60
2022/04/20 02:33:10;;;;;;;0.90;0.90;;;19.30;46.80;;;;;;5075037;28;43581;-60
2022/04/20 02:35:40;;;;;;;1.15;1.05;;;19.30;47.10;;;;;;5049070;28;46098;-60
2022/04/20 02:38:11;;;;;;;1.20;1.10;;;19.30;46.90;;;;;;5049792;28;43988;-61
2022/04/20 02:40:38;;;;;;;;;;;19.30;46.90;;;;;;5069887;28;43452;-60
2022/04/20 02:43:06;;;;;;;0.77;0.77;;;19.30;46.80;;;;;;5066372;28;44019;-59
2022/04/20 02:45:33;;;;;;;0.80;0.80;;;19.20;46.90;;;;;;5064235;28;44225;-60
2022/04/20 02:48:01;;;;;;;0.80;0.80;;;19.30;47.00;;;;;;5066904;28;43455;-60
2022/04/20 02:50:29;;;;;;;0.73;0.73;;;19.20;46.80;;;;;;5048221;28;43554;-60
2022/04/20 02:52:57;;;;;;;1.15;0.93;;;19.30;46.90;;;;;;5038616;28;43612;-59
2022/04/20 02:55:24;;;;;;;1.13;0.88;;;19.20;47.00;;;;;;5067790;28;44299;-60
2022/04/20 02:57:52;;;;;;;1.00;1.00;;;19.20;46.90;;;;;;5081412;27;43524;-60
2022/04/20 03:00:20;;;;;;;0.95;0.95;;;19.20;46.90;;;;;;5059890;28;43421;-60
2022/04/20 03:02:55;;;;;;;0.80;0.80;;;19.20;47.00;;;;;;5070467;28;43472;-60
2022/04/20 03:05:24;;;;;;;0.95;0.95;;;19.20;47.00;;;;;;5059146;28;44050;-60
2022/04/20 03:07:52;;;;;;;0.90;0.90;;;19.20;47.00;;;;;;5062476;28;43962;-59
2022/04/20 03:10:19;;;;;;;1.08;0.95;;;19.20;46.80;;;;;;5073267;27;43475;-60
2022/04/20 03:12:47;;;;;;;1.10;1.08;;;19.20;46.90;;;;;;5069417;28;43557;-60
2022/04/20 03:15:14;;;;;;;0.90;0.90;;;19.10;47.00;;;;;;5087578;27;44024;-60
2022/04/20 03:17:42;;;;;;;1.30;0.90;;;19.10;46.90;;;;;;5079026;27;43469;-60
2022/04/20 03:20:11;;;;;;;1.23;1.00;;;19.10;46.90;;;;;;5100676;27;43440;-61
2022/04/20 03:22:39;;;;;;;1.08;0.90;;;19.10;47.00;;;;;;5101115;27;43451;-60
2022/04/20 03:25:06;;;;;;;1.00;0.82;;;19.10;47.10;;;;;;5100790;27;44766;-61
2022/04/20 03:27:43;;;;;;;0.73;0.73;;;19.10;47.00;;;;;;5103537;27;43470;-60
2022/04/20 03:30:14;;;;;;;1.10;1.10;;;19.10;47.00;;;;;;5080056;28;43413;-60
2022/04/20 03:32:41;;;;;;;;;;;19.10;46.90;;;;;;5088238;27;43451;-60
2022/04/20 03:35:09;;;;;;;0.98;0.98;;;19.00;46.90;;;;;;5064532;28;43967;-61
2022/04/20 03:37:37;;;;;;;0.90;0.90;;;19.10;47.10;;;;;;5058460;27;43829;-59
2022/04/20 03:40:05;;;;;;;1.10;0.82;;;19.00;47.10;;;;;;5069040;28;43490;-59
2022/04/20 03:42:32;;;;;;;1.00;0.93;;;19.00;47.10;;;;;;5070036;28;43620;-61
2022/04/20 03:45:00;;;;;;;1.02;0.90;;;19.00;47.70;;;;;;5040719;28;44110;-60
2022/04/20 03:47:28;;;;;;;0.98;0.90;;;19.00;47.00;;;;;;5032002;27;43893;-59
2022/04/20 03:49:55;;;;;;;0.80;0.80;;;19.00;47.10;;;;;;5093452;27;43486;-59
2022/04/20 03:52:22;;;;;;;0.80;0.80;;;19.00;47.00;;;;;;5077748;27;43502;-60
2022/04/20 03:54:50;;;;;;;1.02;0.90;;;19.00;47.20;;;;;;5041009;28;44849;-60
2022/04/20 03:57:18;;;;;;;1.00;1.00;;;18.90;47.10;;;;;;5021324;27;44039;-60
2022/04/20 03:59:46;;;;;;;1.15;1.05;;;18.90;47.10;;;;;;5116452;27;44092;-60
2022/04/20 04:02:17;;;;;;;0.93;0.93;;;19.00;47.10;;;;;;5057931;28;43578;-60
2022/04/20 04:05:04;;;;;;;1.00;0.90;;;18.90;47.00;;;;;;5027182;28;44788;-60
2022/04/20 04:07:51;;;;;;;0.80;0.80;;;18.90;47.10;;;;;;5080767;27;43506;-60
2022/04/20 04:10:25;;;;;;;1.70;1.20;;;18.90;47.10;;;;;;5079733;27;43472;-60
2022/04/20 04:12:55;;;;;;;2.22;1.10;;;18.90;47.10;;;;;;5079437;27;43535;-60
2022/04/20 04:15:25;;;;;;;1.52;1.08;;;18.90;47.10;;;;;;5020505;27;45375;-60
2022/04/20 04:17:58;;;;;;;0.82;0.82;;;18.80;47.00;;;;;;5040287;27;43993;-61
2022/04/20 04:20:31;;;;;;;1.60;1.00;;;18.90;47.10;;;;;;5094971;27;43448;-59
2022/04/20 04:22:58;;;;;;;1.15;1.05;;;18.80;47.10;;;;;;5045717;27;43458;-60
2022/04/20 04:25:52;;;;;;;0.90;0.90;;;18.80;47.10;;;;;;5087776;27;45167;-59
2022/04/20 04:28:33;;;;;;;;;;;18.80;47.10;;;;;;5055543;28;43432;-60
2022/04/20 04:31:00;;;;;;;1.20;1.10;;;18.80;47.10;;;;;;5079889;27;43467;-60
2022/04/20 04:33:29;;;;;;;0.90;0.90;;;18.70;47.20;;;;;;5039056;28;43666;-59
2022/04/20 04:35:57;;;;;;;1.15;1.08;;;18.70;47.10;;;;;;5052111;27;45152;-60
2022/04/20 04:38:25;;;;;;;0.93;0.93;;;18.70;47.10;;;;;;5050822;28;44059;-61
2022/04/20 04:40:53;;;;;;;1.73;1.05;;;18.70;47.10;;;;;;5049789;27;43424;-60
2022/04/20 04:43:26;;;;;;;1.17;1.08;;;18.70;47.10;;;;;;5039950;28;43637;-61
2022/04/20 04:48:54;;;;;;;1.10;1.00;;;18.70;47.00;;;;;;5056047;28;43551;-60
2022/04/20 04:51:22;;;;;;;0.95;0.95;;;18.70;47.20;;;;;;5032689;28;43468;-59
2022/04/20 04:53:49;;;;;;;1.00;1.00;;;18.70;47.20;;;;;;5057692;28;43597;-60
2022/04/20 04:56:27;;;;;;;0.98;0.98;;;18.70;47.20;;;;;;5033263;28;43788;-60
2022/04/20 04:58:54;;;;;;;1.05;1.05;;;18.70;47.20;;;;;;5044323;28;43518;-60
2022/04/20 05:01:22;;;;;;;1.10;1.00;;;18.70;47.10;;;;;;5039368;28;43467;-59
2022/04/20 05:03:53;;;;;;;0.95;0.93;;;18.70;47.30;;;;;;5042354;28;43582;-60
2022/04/20 05:06:21;;;;;;;1.13;1.02;;;18.60;47.20;;;;;;5078098;28;44736;-59
2022/04/20 05:09:07;;;;;;;1.05;1.00;;;18.70;47.30;;;;;;5042782;28;43681;-59
2022/04/20 05:11:38;;;;;;;1.10;1.00;;;18.60;47.20;;;;;;5047049;28;43429;-60
2022/04/20 05:14:07;;;;;;;1.20;1.10;;;18.60;47.20;;;;;;5043863;28;43614;-60
2022/04/20 05:16:37;;;;;;;1.00;1.00;;;18.60;47.30;;;;;;5078077;28;43753;-61
2022/04/20 05:19:06;;;;;;;1.02;1.00;;;18.60;47.40;;;;;;5045269;28;43651;-60
2022/04/20 05:21:34;;;;;;;1.77;1.10;;;18.60;47.40;;;;;;5046201;28;44028;-60
2022/04/20 05:24:02;;;;;;;0.98;0.98;;;18.60;47.40;;;;;;5045632;28;43611;-60
2022/04/20 05:26:34;;;;;;;0.98;0.98;;;18.60;47.40;;;;;;5044625;28;43882;-60
2022/04/20 05:29:02;;;;;;;1.10;1.00;;;18.60;47.40;;;;;;5044964;28;43515;-62
2022/04/20 05:31:36;;;;;;;1.77;0.80;;;18.60;47.40;;;;;;5044226;28;43507;-60
2022/04/20 05:34:06;;;;;;;1.20;1.10;;;18.50;47.40;;;;;;5036635;28;43505;-60
2022/04/20 05:42:07;;;;;;;1.17;0.85;;;18.60;47.50;;;;;;5045333;28;43539;-59
2022/04/20 05:44:34;;;;;;;1.08;1.08;;;18.50;47.50;;;;;;5047010;28;43634;-60
2022/04/20 05:47:03;;;;;;;1.42;0.98;;;18.50;47.50;;;;;;5046578;28;43856;-60
2022/04/20 05:49:30;;;;;;;0.95;0.95;;;18.50;47.60;;;;;;5075171;27;44056;-59
2022/04/20 05:51:57;;;;;;;0.98;0.98;;;18.50;47.50;;;;;;5083610;27;43539;-60
2022/04/20 05:54:24;;;;;;;1.10;1.02;;;18.50;47.50;;;;;;5107833;27;43713;-60
2022/04/20 05:56:53;;;;;;;1.20;1.10;;;18.50;47.50;;;;;;5103522;27;44036;-60
2022/04/20 05:59:20;;;;;;;1.15;1.10;;;18.50;47.50;;;;;;5115046;27;43989;-60
2022/04/20 06:01:50;;;;;;;1.27;0.85;;;18.50;47.40;;;;;;5070948;28;43843;-60
2022/04/20 06:04:23;;;;;;;0.88;0.88;;;18.50;47.30;;;;;;5069306;27;43503;-59
2022/04/20 06:07:03;;;;;;;1.92;1.10;;;18.50;47.30;;;;;;5097184;27;43887;-59
2022/04/20 06:09:35;;;;;;;0.98;0.98;;;18.50;47.20;;;;;;5085605;27;43931;-58
2022/04/20 06:12:23;;;;;;;2.67;1.23;;;18.50;47.30;;;;;;5090019;27;43489;-60
2022/04/20 06:15:01;;;;;;;3.03;1.10;;;18.50;47.40;;;;;;5077563;27;43521;-59
2022/04/20 06:17:58;;;;;;;3.67;3.08;;;18.50;47.40;;;;;;5085590;27;44756;-60
2022/04/20 06:20:25;;;;;;;3.60;2.72;;;18.50;47.40;;;;;;5079296;28;43479;-59
2022/04/20 06:23:01;;;;;;;5.90;2.60;;;18.40;47.40;;;;;;5077346;27;43455;-60
2022/04/20 06:25:55;;;;;;;4.28;2.20;;;18.50;47.40;;;;;;5083282;27;43618;-60
2022/04/20 06:28:44;;;;;;;3.03;2.30;;;18.50;47.30;;;;;;5078227;27;45001;-61
2022/04/20 06:31:30;;;;;;;2.53;2.20;;;18.60;47.40;;;;;;5089210;27;43911;-60
2022/04/20 06:34:19;;;;;;;2.03;1.77;;;18.70;47.40;;;;;;5087552;27;43522;-61
2022/04/20 06:37:14;;;;;;;2.22;1.90;;;18.90;47.50;;;;;;5055495;27;43563;-60
2022/04/20 06:40:01;;;;;;;2.70;2.20;;;19.00;47.40;;;;;;5076117;27;44961;-61
2022/04/20 06:42:47;;;;;;;3.05;2.10;;;19.20;47.80;;;;;;5088431;27;44104;-60
2022/04/20 06:45:44;;;;;;;3.17;1.92;;;19.30;47.30;;;;;;5083686;27;43485;-61
2022/04/20 06:48:33;;;;;;;2.90;2.05;;;19.50;47.10;;;;;;5069425;28;43510;-61
2022/04/20 06:51:15;;;;;;;4.15;1.83;;;19.70;47.10;;;;;;5064629;28;45016;-61
2022/04/20 06:59:42;;;;;;;4.53;2.10;;;20.30;46.40;;;;;;5061926;27;43480;-61
2022/04/20 07:02:36;;;;;;;3.15;1.90;;;20.40;46.30;;;;;;5069199;27;45044;-62
2022/04/20 07:05:35;;;;;;;4.40;2.05;;;20.60;46.00;;;;;;5082843;27;43582;-62
2022/04/20 07:08:16;;;;;;;4.53;1.70;;;20.80;46.10;;;;;;5063636;28;43584;-61
2022/04/20 07:10:44;;;;;;;5.40;1.80;;;20.90;45.80;;;;;;5066079;28;43495;-61
2022/04/20 07:13:16;;;;;;;2.35;1.63;;;21.10;45.90;;;;;;5085954;27;44775;-61
2022/04/20 07:15:45;;;;;;;4.75;1.90;;;21.10;45.60;;;;;;5064778;27;43811;-60
2022/04/20 07:18:14;;;;;;;3.35;2.00;;;21.20;45.50;;;;;;5091808;27;43529;-61
2022/04/20 07:20:59;;;;;;;3.00;1.70;;;21.30;45.40;;;;;;5079320;27;43471;-60
2022/04/20 07:23:45;;;;;;;3.33;1.60;;;21.40;45.60;;;;;;5079655;27;43777;-60
2022/04/20 07:26:33;;;;;;;3.92;1.92;;;21.40;45.30;;;;;;5060274;27;43572;-59
2022/04/20 07:29:15;;;;;;;5.18;1.65;;;21.50;45.10;;;;;;5094738;27;43501;-61
2022/04/20 07:32:06;;;;;;;1.80;1.70;;;21.50;45.10;;;;;;5079092;27;43482;-61
2022/04/20 07:35:11;;;;;;;3.65;1.85;;;21.50;44.90;;;;;;5082329;27;44688;-62
2022/04/20 07:37:59;;;;;;;4.03;1.80;;;21.70;44.80;;;;;;5086388;27;43729;-61
2022/04/20 07:40:45;;;;;;;1.92;1.60;;;21.70;44.90;;;;;;5072424;28;43523;-61
2022/04/20 07:43:24;;;;;;;5.13;1.88;;;21.80;44.80;;;;;;5058297;28;43475;-61
2022/04/20 07:46:17;;;;;;;3.03;1.60;;;21.90;44.40;;;;;;5069527;28;44228;-62
2022/04/20 07:48:54;;;;;;;2.05;1.63;;;22.00;44.50;;;;;;5058871;28;43483;-62
2022/04/20 07:51:38;;;;;;;3.63;1.40;;;22.00;44.30;;;;;;5067032;27;44195;-61
2022/04/20 07:54:35;;;;;;;3.10;1.60;;;22.20;44.30;;;;;;5075880;27;43554;-61
2022/04/20 07:57:29;;;;;;;4.80;1.20;;;22.20;44.20;;;;;;5080526;27;44985;-60
2022/04/20 08:00:11;;;;;;;3.50;1.50;;;22.30;44.00;;;;;;5075065;28;43706;-61
2022/04/20 08:03:15;;;;;;;2.45;1.40;;;22.50;43.90;;;;;;5071591;28;43482;-61
2022/04/20 08:05:53;;;;;;;2.13;1.50;;;22.60;43.50;;;;;;5066131;27;43568;-62
2022/04/20 08:08:24;;;;;;;2.65;1.58;;;22.70;43.30;;;;;;5069184;27;43794;-62
2022/04/20 08:10:54;;;;;;;2.58;1.65;;;22.80;43.10;;;;;;5066928;27;43520;-61
2022/04/20 08:16:14;;;;;;;1.33;1.23;;;23.10;42.80;;;;;;5090604;27;43530;-61
2022/04/20 08:19:07;;;;;;;1.35;1.25;;;23.00;43.10;;;;;;5085164;27;43743;-61
2022/04/20 08:21:54;;;;;;;2.25;1.30;;;23.00;42.50;;;;;;5073429;27;43510;-60
2022/04/20 08:24:21;;;;;;;2.90;1.38;;;23.00;42.50;;;;;;5077346;27;43492;-61
2022/04/20 08:26:48;;;;;;;2.00;1.20;;;23.00;42.60;;;;;;5080178;27;43561;-62
2022/04/20 08:29:16;;;;;;;1.25;1.15;;;22.90;42.70;;;;;;5085682;27;43900;-62
2022/04/20 08:31:43;;;;;;;1.00;1.00;;;22.80;42.80;;;;;;5081940;27;43497;-61
2022/04/20 08:34:10;;;;;;;2.63;1.40;;;22.80;42.90;;;;;;5081499;27;43494;-61
2022/04/20 08:36:38;;;;;;;2.28;1.17;;;22.70;42.80;;;;;;5077396;27;43479;-61
2022/04/20 08:39:05;;;;;;;1.88;1.30;;;22.70;42.80;;;;;;5078023;27;44785;-61
2022/04/20 08:41:34;;;;;;;1.10;0.93;;;22.60;42.90;;;;;;5078999;27;43770;-61
2022/04/20 08:44:04;;;;;;;1.08;1.08;;;22.60;43.00;;;;;;5079527;27;43479;-60
2022/04/20 08:46:41;;;;;;;1.20;1.10;;;22.50;43.00;;;;;;5078809;27;43528;-60
2022/04/20 08:49:09;;;;;;;1.85;1.20;;;22.50;42.90;;;;;;5077798;27;43877;-62
2022/04/20 08:54:23;;;;;;;1.27;1.17;;;22.40;43.10;;;;;;5074579;27;44046;-61
2022/04/20 08:59:37;;;;;;;1.80;1.23;;;22.30;43.20;;;;;;5067622;28;44097;-61
2022/04/20 09:02:06;;;;;;;1.48;1.23;;;22.20;43.20;;;;;;5074258;27;43786;-61
2022/04/20 09:04:36;;;;;;;2.03;1.42;;;22.20;43.40;;;;;;5070840;27;43594;-61
2022/04/20 09:07:06;;;;;;;1.23;1.08;;;22.20;43.60;;;;;;5054130;28;43536;-61
2022/04/20 09:09:34;;;;;;;1.30;1.20;;;22.10;43.50;;;;;;5085523;27;44369;-61
2022/04/20 09:12:07;;;;;;;2.70;1.60;;;22.00;43.50;;;;;;5083446;27;43895;-62
2022/04/20 09:14:34;;;;;;;1.30;1.20;;;22.00;43.60;;;;;;5078820;27;43454;-61
2022/04/20 09:17:03;;;;;;;1.98;1.52;;;22.00;43.70;;;;;;5077436;27;43561;-62
2022/04/20 09:19:30;;;;;;;1.33;1.20;;;21.90;43.60;;;;;;5089953;27;44075;-61
2022/04/20 09:21:57;;;;;;;1.65;1.25;;;21.90;43.80;;;;;;5088679;27;43509;-61
2022/04/20 09:24:25;;;;;;;1.60;1.40;;;21.80;43.70;;;;;;5078461;28;43558;-61
2022/04/20 09:26:54;;;;;;;2.88;1.20;;;21.80;43.70;;;;;;5070443;28;44056;-60
2022/04/20 09:29:22;;;;;;;2.22;1.30;;;21.70;43.60;;;;;;5063101;28;45835;-61
2022/04/20 09:31:53;;;;;;;2.90;1.40;;;21.70;43.80;;;;;;5079028;27;43815;-60
2022/04/20 09:34:31;;;;;;;2.47;1.20;;;21.70;43.90;;;;;;5088653;27;43397;-60
2022/04/20 09:37:13;;;;;;;1.65;1.27;;;21.70;43.80;;;;;;5084911;27;43496;-61
2022/04/20 09:39:47;;;;;;;1.35;1.25;;;21.60;43.80;;;;;;5084387;27;43901;-61
2022/04/20 09:42:15;;;;;;;1.52;1.17;;;21.60;43.90;;;;;;5076480;27;43582;-61
2022/04/20 09:45:00;;;;;;;2.22;1.17;;;21.60;43.90;;;;;;5084963;27;43513;-61
2022/04/20 09:50:26;;;;;;;2.20;1.20;;;21.50;43.90;;;;;;5081447;27;44034;-61
2022/04/20 09:52:55;;;;;;;1.00;1.00;;;21.50;43.90;;;;;;5085820;27;43558;-62
2022/04/20 09:55:36;;;;;;;1.30;1.20;;;21.50;43.90;;;;;;5082512;27;43542;-60
2022/04/20 09:58:10;;;;;;;;;;;21.50;43.90;;;;;;5084694;27;43514;-62
2022/04/20 10:00:44;;;;;;;1.27;1.17;;;21.50;43.80;;;;;;5078052;27;44812;-60
2022/04/20 10:03:21;;;;;;;2.00;1.20;;;21.40;43.80;;;;;;5064595;28;43867;-61
2022/04/20 10:05:49;;;;;;;1.50;1.40;;;21.40;43.90;;;;;;5081816;27;43448;-62
2022/04/20 10:08:20;;;;;;;0.98;0.95;;;21.40;43.90;;;;;;5079723;28;43519;-61
2022/04/20 10:10:50;;;;;;;1.65;1.20;;;21.40;43.90;;;;;;5072385;28;43769;-62
2022/04/20 10:13:19;;;;;;;1.05;0.95;;;21.40;43.90;;;;;;5075462;27;44071;-61
2022/04/20 10:16:07;;;;;;;1.95;1.20;;;21.40;43.90;;;;;;5079276;27;43663;-60
2022/04/20 10:18:44;;;;;;;2.03;1.20;;;21.40;43.90;;;;;;5060018;28;43595;-60
2022/04/20 10:21:11;;;;;;;1.35;1.15;;;21.40;43.90;;;;;;5080035;27;45021;-61
2022/04/20 10:23:47;;;;;;;1.33;1.23;;;21.30;44.00;;;;;;5079535;27;44041;-61
2022/04/20 10:26:17;;;;;;;1.20;1.10;;;21.30;44.10;;;;;;5069446;28;43523;-61
2022/04/20 10:29:16;;;;;;;1.40;1.13;;;21.40;44.20;;;;;;5071554;27;43585;-61
2022/04/20 10:31:58;;;;;;;1.88;1.15;;;21.30;44.10;;;;;;5083045;27;44184;-61
2022/04/20 10:34:26;;;;;;;1.75;1.08;;;21.30;44.30;;;;;;5098730;27;43442;-61
2022/04/20 10:37:17;;;;;;;1.92;1.15;;;21.30;44.20;;;;;;5080883;27;43554;-60
2022/04/20 10:40:11;;;;;;;1.30;1.20;;;21.30;44.30;;;;;;5069731;28;43617;-62
2022/04/20 10:42:40;;;;;;;0.93;0.93;;;21.30;44.30;;;;;;5058395;27;43758;-62
2022/04/20 10:45:08;;;;;;;1.48;1.10;;;21.30;44.20;;;;;;5084924;27;43832;-61
2022/04/20 10:47:38;;;;;;;1.42;1.08;;;21.40;44.00;;;;;;5081437;27;43515;-61
2022/04/20 10:50:19;;;;;;;1.80;0.90;;;21.40;44.00;;;;;;5085412;27;43509;-60
2022/04/20 10:52:59;;;;;;;1.10;1.02;;;21.40;44.10;;;;;;5080678;27;44231;-60
2022/04/20 10:55:36;;;;;;;2.97;1.20;;;21.40;44.00;;;;;;5067603;28;43558;-61
2022/04/20 10:58:24;;;;;;;1.52;1.35;;;21.40;43.90;;;;;;5084647;27;44295;-60
2022/04/20 11:01:12;;;;;;;1.00;1.00;;;21.40;43.80;;;;;;5071175;27;44170;-60
2022/04/20 11:03:58;;;;;;;1.20;1.10;;;21.40;43.80;;;;;;5076278;28;45027;-61
2022/04/20 11:06:49;;;;;;;2.00;1.15;;;21.40;43.80;;;;;;5069130;28;43677;-62
2022/04/20 11:09:58;;;;;;;1.85;0.90;;;21.40;44.50;;;;;;5076890;27;43463;-61
2022/04/20 11:18:38;;;;;;;1.67;1.00;;;21.40;44.00;;;;;;5071221;27;43983;-60
2022/04/20 11:21:31;;;;;;;1.02;1.00;;;21.50;44.10;;;;;;5054115;28;43435;-61
2022/04/20 11:24:08;;;;;;;1.75;0.93;;;21.50;44.20;;;;;;5084039;27;43479;-61
2022/04/20 11:26:39;;;;;;;1.00;0.90;;;21.50;44.20;;;;;;5077503;27;44896;-61
2022/04/20 11:29:24;;;;;;;1.50;0.90;;;21.50;44.20;;;;;;5083026;27;43529;-61
2022/04/20 11:31:58;;;;;;;1.90;0.90;;;21.50;44.30;;;;;;5085871;27;43498;-61
2022/04/20 11:34:33;;;;;;;1.40;1.00;;;21.50;44.30;;;;;;5100818;27;43559;-61
2022/04/20 11:37:02;;;;;;;0.90;0.90;;;21.50;44.30;;;;;;5084533;27;44373;-61
2022/04/20 11:39:30;;;;;;;0.90;0.90;;;21.60;45.00;;;;;;5083418;27;43489;-61
2022/04/20 11:41:59;;;;;;;1.45;0.70;;;21.60;44.50;;;;;;5074000;28;43634;-62
2022/04/20 11:44:31;;;;;;;0.98;0.98;;;21.60;44.50;;;;;;5056762;28;43545;-61
2022/04/20 11:47:07;;;;;;;0.93;0.93;;;21.60;44.50;;;;;;5065034;28;44713;-62
2022/04/20 11:49:37;;;;;;;1.63;0.90;;;21.70;44.50;;;;;;5067944;28;43550;-61
2022/04/20 11:52:09;;;;;;;1.20;0.73;;;21.70;44.50;;;;;;5068752;28;43455;-61
2022/04/20 11:54:39;;;;;;;0.90;0.90;;;21.70;44.50;;;;;;5056431;28;43494;-61
2022/04/20 11:57:10;;;;;;;0.90;0.90;;;21.70;44.50;;;;;;5056071;28;44963;-62
2022/04/20 11:59:48;;;;;;;0.80;0.80;;;21.70;44.50;;;;;;5065550;28;43508;-61
2022/04/20 12:02:18;;;;;;;0.90;0.90;;;21.80;44.60;;;;;;5078013;27;44002;-62
2022/04/20 12:05:09;;;;;;;1.05;1.05;;;21.80;44.60;;;;;;5097469;27;44160;-61
2022/04/20 12:07:37;;;;;;;1.42;0.93;;;21.80;44.60;;;;;;5074954;27;44264;-62
2022/04/20 12:10:05;;;;;;;0.90;0.90;;;21.80;44.50;;;;;;5083053;27;43923;-62
2022/04/20 12:12:33;;;;;;;1.70;1.15;;;21.80;44.60;;;;;;5080011;27;43539;-62
2022/04/20 12:15:08;;;;;;;0.77;0.77;;;21.90;44.60;;;;;;5081041;27;43478;-61
2022/04/20 12:17:37;;;;;;;1.27;1.00;;;21.90;44.60;;;;;;5067361;28;44990;-61
2022/04/20 12:20:05;;;;;;;1.25;0.98;;;21.90;44.60;;;;;;5069730;28;45191;-61
2022/04/20 12:22:37;;;;;;;0.90;0.90;;;21.90;44.70;;;;;;5062214;28;43951;-61
2022/04/20 12:25:06;;;;;;;0.73;0.73;;;21.90;44.60;;;;;;5067191;27;43611;-61
2022/04/20 12:27:57;;;;;;;0.85;0.80;;;21.90;44.60;;;;;;5072236;27;44705;-62
2022/04/20 12:30:44;;;;;;;0.87;0.87;;;22.00;44.60;;;;;;5079292;27;44892;-62
2022/04/20 12:33:24;;;;;;;1.00;0.90;;;22.00;44.60;;;;;;5076592;27;43434;-61
2022/04/20 12:36:08;;;;;;;5.03;1.00;;;22.00;44.70;;;;;;5077259;28;44210;-60
2022/04/20 12:38:46;;;;;;;2.13;1.15;;;22.10;44.90;;;;;;5041454;28;44051;-60
2022/04/20 12:41:41;;;;;;;3.55;1.00;;;22.10;44.80;;;;;;5072211;27;43577;-60
2022/04/20 12:44:37;;;;;;;3.10;1.00;;;22.10;44.60;;;;;;5080495;27;43517;-61
2022/04/20 12:47:20;;;;;;;2.22;0.95;;;22.10;44.60;;;;;;5072272;27;43530;-61
2022/04/20 12:49:53;;;;;;;2.22;1.00;;;22.10;44.50;;;;;;5075106;28;44043;-61
2022/04/20 12:52:22;;;;;;;1.42;1.00;;;22.20;44.50;;;;;;5065437;27;43906;-60
2022/04/20 12:54:57;;;;;;;0.90;0.90;;;22.20;44.50;;;;;;5079836;27;43662;-59
2022/04/20 13:03:15;;;;;;;3.90;1.27;;;22.20;44.50;;;;;;5075332;27;43778;-59
2022/04/20 13:05:43;;;;;;;1.30;1.20;;;22.30;44.50;;;;;;5069493;27;43579;-62
2022/04/20 13:08:12;;;;;;;2.85;1.40;;;22.30;44.50;;;;;;5070838;27;43646;-61
2022/04/20 13:10:42;;;;;;;2.17;1.05;;;22.30;44.50;;;;;;5084708;27;44807;-60
2022/04/20 13:13:10;;;;;;;0.90;0.90;;;22.30;44.40;;;;;;5080683;27;44472;-61
2022/04/20 13:15:41;;;;;;;2.55;1.00;;;22.30;44.40;;;;;;5084734;27;43535;-61
2022/04/20 13:18:09;;;;;;;1.77;0.90;;;22.30;44.40;;;;;;5067254;28;43499;-61
2022/04/20 13:20:36;;;;;;;1.05;0.90;;;22.40;44.40;;;;;;5064431;28;44944;-60
2022/04/20 13:23:07;;;;;;;1.85;1.10;;;22.40;44.50;;;;;;5072246;27;43473;-61
2022/04/20 13:28:20;;;;;;;1.95;1.50;;;22.50;44.60;;;;;;5073879;27;43591;-60
2022/04/20 13:30:47;;;;;;;0.98;0.88;;;22.50;45.20;;;;;;5079034;27;45022;-61
2022/04/20 13:33:15;;;;;;;1.52;0.77;;;22.60;44.70;;;;;;5081124;27;43588;-60
2022/04/20 13:35:45;;;;;;;1.25;0.80;;;22.60;44.60;;;;;;5082793;27;43503;-61
2022/04/20 13:38:12;;;;;;;1.00;0.90;;;22.60;44.60;;;;;;5081123;27;43682;-61
2022/04/20 13:40:41;;;;;;;0.90;0.90;;;22.60;44.50;;;;;;5079997;27;43853;-59
2022/04/20 13:43:09;;;;;;;0.80;0.80;;;22.60;44.50;;;;;;5074275;27;43905;-60
2022/04/20 13:45:37;;;;;;;1.48;1.00;;;22.60;44.50;;;;;;5074142;28;43775;-59
2022/04/20 13:48:05;;;;;;;0.73;0.70;;;22.60;44.50;;;;;;5079770;27;43592;-61
2022/04/20 13:50:33;;;;;;;1.00;0.95;;;22.60;44.50;;;;;;5077004;27;44644;-60
2022/04/20 13:53:01;;;;;;;0.95;0.90;;;22.60;44.40;;;;;;5073448;28;43594;-61
2022/04/20 13:55:29;;;;;;;0.80;0.80;;;22.60;44.50;;;;;;5080714;27;43530;-61
2022/04/20 13:57:56;;;;;;;1.20;0.93;;;22.60;44.40;;;;;;5087940;27;43490;-59
2022/04/20 14:00:27;;;;;;;0.90;0.90;;;22.60;44.40;;;;;;5074992;27;44034;-61
2022/04/20 14:02:55;;;;;;;1.00;0.90;;;22.70;44.50;;;;;;5082611;27;43466;-62
2022/04/20 14:05:22;;;;;;;0.85;0.80;;;22.70;44.50;;;;;;5082477;27;43434;-60
2022/04/20 14:07:50;;;;;;;0.80;0.80;;;22.70;44.50;;;;;;5083160;27;43504;-59
2022/04/20 14:10:18;;;;;;;0.75;0.75;;;22.70;44.50;;;;;;5088574;27;45127;-59